Terminal Aerodrome Forecast
Issued by NWS Goodland, KS

Home | Current Version | Previous Version | Text Only | Print | Product List | Glossary On
Versions: 1 2 3 4 5 6 7 8 9 10 11 12 13 14 15 16 17 18
774
FTUS43 KGLD 170520
TAFGLD
TAF
KGLD 170520Z 1706/1806 07006KT P6SM BKN080
     FM170700 09007KT P6SM VCSH BKN080
      TEMPO 1708/1711 -TSRA BKN060CB
     FM171100 10006KT P6SM SCT006 BKN060
      TEMPO 1711/1715 BKN006
     FM171800 14011KT P6SM BKN010=

USA.gov is the U.S. government's official web portal to all federal, state and local government web resources and services.